Time;durP1;ratioP1;P1;durP2;ratioP2;P2;SDS_P1;SDS_P2;PMS_P1;PMS_P2;Temp;Humidity;BMP_temperature;BMP_pressure;BME280_temperature;BME280_humidity;BME280_pressure;Samples;Min_cycle;Max_cycle;Signal;HPM_P1;HPM_P2
2021/01/13 00:01:49;;;;;;;26.92;16.40;;;;;;;2.22;62.38;94160.97;4960330;28;20436;-84
2021/01/13 00:04:24;;;;;;;25.80;17.33;;;;;;;2.27;62.64;94173.22;4941384;29;20404;-84
2021/01/13 00:09:28;;;;;;;25.67;17.20;;;;;;;2.28;62.53;94165.34;5090799;23;20518;-86
2021/01/13 00:15:38;;;;;;;27.15;18.63;;;;;;;2.60;61.70;94173.22;4894841;29;20055;-82
2021/01/13 00:18:07;;;;;;;29.63;17.98;;;;;;;2.63;60.90;94173.63;4890008;29;20052;-84
2021/01/13 00:20:32;;;;;;;33.95;20.02;;;;;;;2.65;61.55;94176.00;4938929;29;20039;-84
2021/01/13 00:23:04;;;;;;;29.83;19.63;;;;;;;2.68;61.52;94173.81;4921802;29;20054;-84
2021/01/13 00:25:29;;;;;;;30.90;19.13;;;;;;;2.70;61.61;94178.75;4905527;29;20082;-84
2021/01/13 00:27:55;;;;;;;27.60;18.83;;;;;;;2.77;60.99;94182.13;4906038;29;20032;-83
2021/01/13 00:30:21;;;;;;;30.25;20.05;;;;;;;2.86;61.03;94178.34;4921414;29;20040;-84
2021/01/13 00:32:46;;;;;;;27.60;18.90;;;;;;;2.90;61.18;94179.53;4938171;29;20032;-84
2021/01/13 00:35:13;;;;;;;28.95;19.85;;;;;;;2.95;61.09;94182.28;4922275;29;20811;-85
2021/01/13 00:37:38;;;;;;;24.65;17.58;;;;;;;2.95;60.22;94169.47;4906131;29;20051;-84
2021/01/13 00:40:05;;;;;;;28.02;18.30;;;;;;;2.88;60.45;94171.22;4921840;29;20043;-83
2021/01/13 00:42:30;;;;;;;27.15;18.15;;;;;;;2.78;61.19;94176.00;4920488;29;20027;-85
2021/01/13 00:44:56;;;;;;;30.55;19.33;;;;;;;2.71;60.81;94164.94;4905701;29;20059;-85
2021/01/13 00:47:21;;;;;;;27.45;18.50;;;;;;;2.57;61.86;94176.97;4921799;29;20098;-85
2021/01/13 00:49:47;;;;;;;25.85;17.23;;;;;;;2.48;61.78;94169.69;4906015;29;20063;-84
2021/01/13 00:52:13;;;;;;;29.17;17.73;;;;;;;2.41;62.54;94162.75;4928367;29;20052;-83
2021/01/13 00:54:38;;;;;;;32.88;20.40;;;;;;;2.41;62.71;94165.34;4888233;29;20511;-83
2021/01/13 00:57:04;;;;;;;37.17;21.73;;;;;;;2.44;62.46;94160.78;4889520;29;20035;-84
2021/01/13 00:59:30;;;;;;;35.95;20.95;;;;;;;2.38;61.60;94154.69;4902403;29;20107;-84
2021/01/13 01:01:55;;;;;;;34.53;19.90;;;;;;;2.31;62.11;94159.81;4902337;29;20062;-83
2021/01/13 01:04:21;;;;;;;28.92;19.13;;;;;;;2.29;62.67;94155.88;4936184;29;20051;-83
2021/01/13 01:06:48;;;;;;;30.08;17.35;;;;;;;2.31;62.33;94153.91;4918483;29;20039;-84
2021/01/13 01:09:13;;;;;;;26.75;17.30;;;;;;;2.29;62.08;94151.53;4904039;29;20516;-83
2021/01/13 01:11:39;;;;;;;28.92;18.17;;;;;;;2.30;62.42;94155.69;4901919;29;20108;-84
2021/01/13 01:14:05;;;;;;;24.17;16.10;;;;;;;2.26;62.37;94149.34;4918739;29;20191;-84
2021/01/13 01:16:38;;;;;;;23.60;15.75;;;;;;;2.25;62.12;94145.19;4903900;29;20036;-83
2021/01/13 01:19:07;;;;;;;23.23;15.55;;;;;;;2.32;61.92;94153.69;4920409;29;20054;-84
2021/01/13 01:21:41;;;;;;;24.70;16.20;;;;;;;2.26;61.68;94151.91;4919470;29;20111;-84
2021/01/13 01:24:08;;;;;;;18.33;14.43;;;;;;;2.24;61.81;94153.09;4903520;29;20042;-85
2021/01/13 01:26:46;;;;;;;23.48;16.10;;;;;;;2.21;62.65;94156.84;4911460;29;20043;-84
2021/01/13 01:29:12;;;;;;;31.00;19.55;;;;;;;2.26;62.93;94148.53;4887374;29;20175;-85
2021/01/13 01:31:37;;;;;;;39.30;20.10;;;;;;;2.33;62.47;94152.72;4903191;29;20040;-84
2021/01/13 01:34:03;;;;;;;26.17;17.13;;;;;;;2.34;61.78;94145.81;4904260;29;20423;-85
2021/01/13 01:36:28;;;;;;;25.52;16.40;;;;;;;2.27;61.45;94138.09;4904021;29;20491;-85
2021/01/13 01:38:54;;;;;;;31.55;18.83;;;;;;;2.28;61.70;94137.13;4903317;29;20527;-84
2021/01/13 01:41:20;;;;;;;27.45;15.85;;;;;;;2.25;61.58;94129.81;4918863;29;20046;-85
2021/01/13 01:43:45;;;;;;;22.88;15.77;;;;;;;2.23;61.90;94126.66;4919851;29;20103;-84
2021/01/13 01:46:11;;;;;;;27.80;18.05;;;;;;;2.17;61.92;94136.91;4919782;29;20124;-84
2021/01/13 01:48:49;;;;;;;31.40;17.23;;;;;;;2.14;62.17;94127.06;4919919;29;20102;-84
2021/01/13 01:51:17;;;;;;;29.40;18.45;;;;;;;2.04;62.52;94122.31;4903691;29;20513;-84
2021/01/13 01:53:54;;;;;;;30.38;18.23;;;;;;;2.07;62.18;94124.47;4919067;29;20039;-85
2021/01/13 01:56:27;;;;;;;23.60;16.00;;;;;;;2.10;62.80;94127.44;4917750;29;20044;-84
2021/01/13 01:59:04;;;;;;;25.98;18.73;;;;;;;2.12;62.52;94119.56;4934632;29;20098;-85
2021/01/13 02:01:34;;;;;;;25.33;18.10;;;;;;;2.16;62.58;94117.38;4904525;29;20039;-85
2021/01/13 02:04:27;;;;;;;29.83;19.17;;;;;;;2.26;62.53;94116.00;4905660;29;20274;-85
2021/01/13 02:06:58;;;;;;;30.23;19.20;;;;;;;2.27;61.61;94112.44;4921242;29;20095;-84
2021/01/13 02:09:28;;;;;;;32.20;20.63;;;;;;;2.26;62.26;94102.38;4936574;29;20114;-85
2021/01/13 02:11:54;;;;;;;26.38;17.70;;;;;;;2.21;62.32;94110.69;4903382;29;20063;-84
2021/01/13 02:14:20;;;;;;;27.80;17.27;;;;;;;2.20;62.31;94106.53;4904047;29;20083;-85
2021/01/13 02:16:53;;;;;;;23.05;16.70;;;;;;;2.09;63.24;94114.81;4888005;29;20055;-85
2021/01/13 02:19:49;;;;;;;27.30;17.08;;;;;;;2.00;63.33;94110.88;4904891;29;20024;-83
2021/01/13 02:22:21;;;;;;;28.30;17.55;;;;;;;1.99;63.08;94110.09;4939212;29;20094;-85
2021/01/13 02:25:13;;;;;;;27.45;16.20;;;;;;;2.02;63.34;94114.03;4911583;29;20551;-85
2021/01/13 02:27:48;;;;;;;21.98;15.98;;;;;;;2.04;63.55;94112.84;4933474;29;20036;-85
2021/01/13 02:30:13;;;;;;;28.90;18.48;;;;;;;2.17;62.94;94111.28;4934785;29;20028;-84
2021/01/13 02:32:41;;;;;;;29.15;18.95;;;;;;;2.27;63.06;94122.69;4901761;29;20102;-85
2021/01/13 02:35:14;;;;;;;27.13;18.48;;;;;;;2.28;62.84;94128.66;4919891;29;20585;-85
2021/01/13 02:37:58;;;;;;;28.95;18.15;;;;;;;2.36;62.11;94124.09;4921362;29;20039;-86
2021/01/13 02:40:24;;;;;;;29.75;17.27;;;;;;;2.36;62.09;94118.97;4935815;29;20040;-86
2021/01/13 02:43:09;;;;;;;30.15;20.08;;;;;;;2.37;62.29;94120.53;4903666;29;20046;-87
2021/01/13 02:45:45;;;;;;;27.80;17.90;;;;;;;2.36;61.52;94116.41;4921397;29;20031;-83
2021/01/13 02:48:14;;;;;;;27.77;17.05;;;;;;;2.33;62.13;94109.09;4903093;29;20427;-84
2021/01/13 02:50:44;;;;;;;27.67;17.63;;;;;;;2.27;62.20;94101.38;4935422;29;20043;-84
2021/01/13 02:53:16;;;;;;;27.80;18.05;;;;;;;2.27;62.17;94106.50;4918369;29;20126;-84
2021/01/13 02:55:47;;;;;;;28.85;17.60;;;;;;;2.25;62.40;94109.28;4934018;29;20038;-84
2021/01/13 02:58:31;;;;;;;31.02;17.38;;;;;;;2.21;61.85;94100.41;4935654;29;20039;-85
2021/01/13 03:00:57;;;;;;;28.25;19.02;;;;;;;2.04;63.26;94096.66;4921874;29;20023;-85
2021/01/13 03:03:26;;;;;;;34.13;20.55;;;;;;;2.03;63.08;94100.22;4887654;29;20098;-84
2021/01/13 03:05:51;;;;;;;42.28;23.23;;;;;;;1.97;63.20;94090.75;4909938;29;20032;-84
2021/01/13 03:08:17;;;;;;;31.75;21.77;;;;;;;1.89;63.01;94088.38;4938565;29;20662;-84
2021/01/13 03:10:47;;;;;;;32.97;22.05;;;;;;;1.86;63.19;94087.00;4893219;29;20046;-83
2021/01/13 03:13:12;;;;;;;33.03;21.05;;;;;;;1.78;63.83;94082.03;4958171;28;20040;-84
2021/01/13 03:15:38;;;;;;;37.28;22.00;;;;;;;1.72;64.21;94083.63;4940866;29;20075;-84
2021/01/13 03:18:19;;;;;;;36.58;22.15;;;;;;;1.60;64.86;94084.38;4888915;29;20035;-84
2021/01/13 03:20:50;;;;;;;34.25;22.02;;;;;;;1.55;64.90;94082.41;4910519;29;20090;-85
2021/01/13 03:23:21;;;;;;;43.30;23.25;;;;;;;1.48;65.49;94079.06;4919015;29;20036;-83
2021/01/13 03:25:51;;;;;;;39.90;22.63;;;;;;;1.42;66.04;94084.94;4918039;29;20099;-83
2021/01/13 03:28:18;;;;;;;33.20;20.88;;;;;;;1.41;66.02;94079.00;4902648;29;20351;-84
2021/01/13 03:30:46;;;;;;;38.05;21.95;;;;;;;1.42;66.37;94077.25;4917285;29;20024;-84
2021/01/13 03:33:51;;;;;;;40.20;22.58;;;;;;;1.44;66.94;94088.88;4901020;29;20062;-84
2021/01/13 03:36:23;;;;;;;40.92;21.55;;;;;;;1.52;66.32;94092.25;4914406;29;20074;-85
2021/01/13 03:39:05;;;;;;;37.72;22.45;;;;;;;1.57;66.42;94095.81;4918239;29;20028;-85
2021/01/13 03:41:53;;;;;;;40.07;24.33;;;;;;;1.68;66.02;94092.69;4886107;29;20063;-84
2021/01/13 03:44:27;;;;;;;40.40;24.48;;;;;;;1.71;65.57;94096.63;4917949;29;20035;-84
2021/01/13 03:46:57;;;;;;;35.80;23.13;;;;;;;1.57;65.59;94098.38;4916463;29;20455;-85
2021/01/13 03:49:34;;;;;;;42.72;23.63;;;;;;;1.49;65.63;94083.97;4918753;29;20040;-84
2021/01/13 03:52:07;;;;;;;47.70;25.65;;;;;;;1.45;66.92;94087.88;4908738;29;20036;-84
2021/01/13 03:54:35;;;;;;;46.70;27.88;;;;;;;1.52;66.06;94093.03;4922182;29;20038;-84
2021/01/13 03:57:03;;;;;;;42.83;24.48;;;;;;;1.54;65.78;94105.66;4982095;23;20131;-85
2021/01/13 04:03:22;;;;;;;46.28;24.15;;;;;;;1.58;65.65;94110.19;4905862;29;20071;-86
2021/01/13 04:06:09;;;;;;;40.17;24.60;;;;;;;1.59;65.90;94109.22;4949627;29;20035;-84
2021/01/13 04:08:46;;;;;;;39.15;22.48;;;;;;;1.54;66.05;94109.00;5004723;23;20584;-85
2021/01/13 04:11:13;;;;;;;40.05;23.83;;;;;;;1.63;65.57;94110.44;4944941;28;20059;-84
2021/01/13 04:13:51;;;;;;;40.53;24.55;;;;;;;1.79;65.16;94112.63;4937426;29;20058;-86
2021/01/13 04:16:23;;;;;;;36.08;20.83;;;;;;;1.91;64.82;94120.50;4948610;29;20031;-84
2021/01/13 04:18:50;;;;;;;34.38;21.88;;;;;;;1.88;65.20;94120.91;4908363;29;20035;-85
2021/01/13 04:21:17;;;;;;;39.38;23.80;;;;;;;2.02;64.42;94119.94;4940481;29;20050;-86
2021/01/13 04:23:43;;;;;;;37.30;23.02;;;;;;;1.95;64.89;94115.78;4923646;29;20039;-83
2021/01/13 04:26:09;;;;;;;39.45;24.33;;;;;;;2.06;64.66;94120.34;4924536;29;20090;-83
2021/01/13 04:28:35;;;;;;;52.95;28.67;;;;;;;2.14;65.15;94124.50;4909573;29;20024;-83
2021/01/13 04:31:01;;;;;;;45.33;26.50;;;;;;;2.17;64.07;94117.19;4925415;29;20042;-83
2021/01/13 04:33:27;;;;;;;48.67;27.88;;;;;;;2.22;64.22;94125.06;5552655;23;20050;-82
2021/01/13 04:35:52;;;;;;;38.90;25.05;;;;;;;2.18;64.07;94126.47;4977171;28;20122;-83
2021/01/13 04:38:32;;;;;;;48.65;28.02;;;;;;;2.29;63.68;94125.09;4971544;28;20029;-85
2021/01/13 04:41:13;;;;;;;48.20;27.45;;;;;;;2.31;63.49;94117.97;4951718;28;20039;-81
2021/01/13 04:43:51;;;;;;;48.97;27.00;;;;;;;2.35;63.69;94114.81;4963462;28;20633;-83
2021/01/13 04:46:37;;;;;;;43.05;23.83;;;;;;;2.47;63.46;94114.22;4965009;28;20043;-82
2021/01/13 04:49:10;;;;;;;37.05;23.05;;;;;;;2.41;63.18;94111.44;4981592;28;20047;-81
2021/01/13 04:51:46;;;;;;;35.17;22.15;;;;;;;2.40;63.62;94112.44;4944327;28;20069;-86
2021/01/13 04:54:20;;;;;;;37.15;21.88;;;;;;;2.45;63.41;94121.34;4959504;28;20020;-83
2021/01/13 04:57:31;;;;;;;41.83;23.85;;;;;;;2.42;62.89;94120.72;4970587;28;20031;-83
2021/01/13 05:00:12;;;;;;;45.15;24.55;;;;;;;2.40;63.71;94125.28;4955054;28;20098;-83
2021/01/13 05:03:03;;;;;;;62.72;30.73;;;;;;;2.42;64.25;94123.28;4967541;28;20046;-83
2021/01/13 05:05:29;;;;;;;48.95;26.08;;;;;;;2.49;63.15;94131.00;4968223;28;20035;-85
2021/01/13 05:08:13;;;;;;;44.45;28.42;;;;;;;2.50;64.15;94131.78;4952342;28;20618;-84
2021/01/13 05:10:41;;;;;;;44.03;26.30;;;;;;;2.50;64.27;94129.22;4970114;28;20042;-84
2021/01/13 05:13:07;;;;;;;50.65;26.40;;;;;;;2.65;63.69;94137.50;4944514;28;20043;-86
2021/01/13 05:15:32;;;;;;;42.53;25.85;;;;;;;2.71;63.03;94136.69;4946346;28;20130;-86
2021/01/13 05:18:05;;;;;;;48.88;27.45;;;;;;;2.74;62.87;94138.84;4938131;28;20681;-85
2021/01/13 05:20:32;;;;;;;40.50;25.77;;;;;;;2.80;61.60;94138.06;4969468;28;20042;-86
2021/01/13 05:22:57;;;;;;;38.65;24.05;;;;;;;2.77;62.00;94143.63;4952724;28;20038;-87
2021/01/13 05:25:51;;;;;;;53.25;27.60;;;;;;;2.65;61.25;94140.06;4968153;28;20034;-84
2021/01/13 05:28:26;;;;;;;36.55;21.10;;;;;;;2.58;61.38;94136.69;4974096;28;20117;-84
2021/01/13 05:30:54;;;;;;;24.25;16.20;;;;;;;2.39;60.68;94128.03;4941188;28;20031;-87
2021/01/13 05:33:26;;;;;;;26.40;16.17;;;;;;;2.20;61.70;94134.75;4948553;28;20041;-82
2021/01/13 05:35:52;;;;;;;;;;;;;;;2.00;62.89;94126.25;4957658;28;20039;-82
2021/01/13 05:38:25;;;;;;;25.13;15.70;;;;;;;1.89;62.97;94119.91;4962963;28;19918;-81
2021/01/13 05:40:52;;;;;;;32.60;18.05;;;;;;;1.86;63.22;94129.78;4935191;28;20053;-84
2021/01/13 05:43:19;;;;;;;32.13;18.50;;;;;;;1.78;63.43;94128.97;4963796;28;20039;-83
2021/01/13 05:45:45;;;;;;;29.40;19.10;;;;;;;1.59;64.10;94139.16;4931587;28;20035;-82
2021/01/13 05:48:24;;;;;;;28.35;19.00;;;;;;;1.60;65.07;94138.97;4948540;28;20035;-83
2021/01/13 05:50:54;;;;;;;29.52;19.98;;;;;;;1.60;65.21;94141.53;4932122;28;20039;-83
2021/01/13 05:53:20;;;;;;;37.65;19.83;;;;;;;1.71;64.44;94146.09;4963297;28;20039;-83
2021/01/13 05:55:47;;;;;;;37.17;22.17;;;;;;;1.78;64.42;94154.59;4963436;28;20530;-83
2021/01/13 05:58:13;;;;;;;36.83;22.17;;;;;;;1.86;64.27;94140.81;4946231;28;20513;-84
2021/01/13 06:00:38;;;;;;;44.53;21.85;;;;;;;1.97;64.42;94149.72;4949965;28;20026;-83
2021/01/13 06:03:05;;;;;;;38.30;20.38;;;;;;;2.05;63.79;94154.66;4941038;28;20083;-82
2021/01/13 06:05:31;;;;;;;37.92;20.77;;;;;;;2.10;62.93;94162.53;4947317;28;20042;-83
2021/01/13 06:08:03;;;;;;;40.60;21.38;;;;;;;2.08;63.67;94157.63;4966053;23;20447;-83
2021/01/13 06:10:34;;;;;;;31.70;19.45;;;;;;;2.06;62.93;94159.59;4926232;29;20115;-82
2021/01/13 06:13:00;;;;;;;40.30;21.35;;;;;;;2.04;63.52;94158.19;4916187;29;20039;-85
2021/01/13 06:15:27;;;;;;;35.83;19.65;;;;;;;2.07;63.16;94168.06;4893081;29;20040;-85
2021/01/13 06:17:53;;;;;;;31.02;18.10;;;;;;;2.17;63.33;94167.69;4900048;29;20035;-84
2021/01/13 06:20:26;;;;;;;34.35;18.98;;;;;;;2.23;62.64;94165.13;4901574;29;20119;-85
2021/01/13 06:22:52;;;;;;;34.25;20.55;;;;;;;2.15;62.88;94175.59;4894964;29;20512;-85
2021/01/13 06:25:26;;;;;;;36.95;22.75;;;;;;;2.18;63.71;94175.19;4893335;29;20119;-85
2021/01/13 06:27:57;;;;;;;41.28;22.58;;;;;;;2.17;63.84;94178.75;4917693;29;20131;-84
2021/01/13 06:30:27;;;;;;;42.13;22.63;;;;;;;2.21;62.49;94177.38;4908813;29;20072;-83
2021/01/13 06:32:53;;;;;;;38.65;22.40;;;;;;;2.16;63.44;94178.94;4892141;29;20044;-79
2021/01/13 06:35:22;;;;;;;39.85;22.83;;;;;;;2.21;63.16;94185.06;4912022;29;20028;-79
2021/01/13 06:37:48;;;;;;;38.13;22.27;;;;;;;2.23;62.75;94183.09;4911835;29;20043;-81
2021/01/13 06:40:18;;;;;;;39.05;21.50;;;;;;;2.28;62.96;94180.75;4897813;29;20094;-79
2021/01/13 06:42:47;;;;;;;40.45;22.92;;;;;;;2.25;62.79;94186.25;4902619;29;20635;-80
2021/01/13 06:45:13;;;;;;;31.38;20.42;;;;;;;2.14;62.75;94186.84;4882209;29;20189;-79
2021/01/13 06:48:06;;;;;;;35.25;20.15;;;;;;;2.24;63.31;94194.13;4894894;29;20492;-80
2021/01/13 06:50:32;;;;;;;31.35;18.80;;;;;;;2.28;62.84;94195.34;4914123;29;20431;-80
2021/01/13 06:52:59;;;;;;;31.00;18.90;;;;;;;2.46;61.93;94197.31;4898652;29;20048;-80
2021/01/13 06:55:31;;;;;;;35.38;21.15;;;;;;;2.49;62.50;94197.72;4928386;28;20066;-80
2021/01/13 06:58:08;;;;;;;30.15;18.60;;;;;;;2.67;61.62;94202.25;4897496;29;20043;-79
2021/01/13 07:00:33;;;;;;;31.05;19.15;;;;;;;2.77;61.51;94204.44;4930192;28;20047;-79
2021/01/13 07:03:17;;;;;;;40.47;21.02;;;;;;;2.77;61.13;94201.88;4894516;29;20479;-80
2021/01/13 07:05:43;;;;;;;35.22;21.20;;;;;;;2.79;61.02;94192.97;4913832;29;20095;-80
2021/01/13 07:08:11;;;;;;;30.77;19.13;;;;;;;2.76;60.79;94201.06;4880955;29;20086;-80
2021/01/13 07:10:37;;;;;;;35.58;19.33;;;;;;;2.84;60.58;94200.88;4894849;29;20043;-80
2021/01/13 07:13:07;;;;;;;37.35;23.23;;;;;;;2.94;60.81;94197.91;5461025;23;20026;-80
2021/01/13 07:15:32;;;;;;;44.92;24.83;;;;;;;3.10;60.41;94204.41;4939525;29;20039;-81
2021/01/13 07:17:58;;;;;;;56.45;29.15;;;;;;;3.23;59.35;94212.84;4924813;29;20082;-80
2021/01/13 07:20:23;;;;;;;59.28;28.98;;;;;;;3.38;59.21;94207.47;4939958;29;20035;-81
2021/01/13 07:22:49;;;;;;;55.13;29.63;;;;;;;3.49;58.73;94217.16;4940026;29;20054;-81
2021/01/13 07:25:14;;;;;;;69.93;34.45;;;;;;;3.48;58.69;94213.00;4939863;29;20050;-80
2021/01/13 07:27:42;;;;;;;50.70;26.58;;;;;;;3.54;58.59;94211.38;4940199;29;20042;-81
2021/01/13 07:30:08;;;;;;;40.30;23.67;;;;;;;3.65;57.70;94217.69;4939050;29;20158;-81
2021/01/13 07:32:41;;;;;;;41.50;20.23;;;;;;;3.57;57.62;94211.78;4938586;29;20043;-81
2021/01/13 07:35:07;;;;;;;43.42;21.15;;;;;;;3.61;57.37;94207.03;4922085;29;20594;-81
2021/01/13 07:37:50;;;;;;;35.50;20.35;;;;;;;3.72;57.49;94203.00;4939815;29;20035;-80
2021/01/13 07:40:33;;;;;;;39.30;23.60;;;;;;;3.76;57.89;94210.13;4924353;29;20046;-80
2021/01/13 07:43:09;;;;;;;66.97;31.73;;;;;;;3.72;57.40;94208.16;4939984;29;20032;-80
2021/01/13 07:45:45;;;;;;;60.80;28.23;;;;;;;3.69;57.58;94206.00;4955180;29;20031;-81
2021/01/13 07:48:11;;;;;;;72.85;28.27;;;;;;;3.72;57.47;94213.31;4938052;29;20101;-80
2021/01/13 07:50:41;;;;;;;31.48;17.33;;;;;;;3.58;57.87;94215.94;4956360;29;20113;-80
2021/01/13 07:53:22;;;;;;;31.65;16.92;;;;;;;3.53;58.31;94215.75;4939122;29;20042;-81
2021/01/13 07:55:47;;;;;;;45.30;20.17;;;;;;;3.41;58.58;94217.34;4939636;29;20039;-80
2021/01/13 07:58:20;;;;;;;36.13;18.40;;;;;;;3.29;59.29;94211.28;4938798;29;20039;-80
2021/01/13 08:01:24;;;;;;;40.55;18.40;;;;;;;3.16;59.34;94219.78;4939898;29;20031;-80
2021/01/13 08:04:10;;;;;;;27.17;14.80;;;;;;;3.02;59.66;94215.66;4955452;29;20047;-80
2021/01/13 08:06:46;;;;;;;31.40;17.00;;;;;;;3.04;59.72;94218.03;4959997;28;20035;-81
2021/01/13 08:09:22;;;;;;;32.17;16.48;;;;;;;2.95;59.92;94223.38;4940772;29;20051;-80
2021/01/13 08:12:07;;;;;;;30.52;16.38;;;;;;;2.95;59.91;94222.59;4960506;28;20035;-80
2021/01/13 08:15:06;;;;;;;30.38;17.60;;;;;;;2.92;60.17;94228.91;4958582;29;20074;-80
2021/01/13 08:17:46;;;;;;;25.30;16.25;;;;;;;2.90;60.13;94236.00;4958177;28;20036;-80
2021/01/13 08:20:50;;;;;;;34.85;16.95;;;;;;;2.86;60.70;94247.66;4956507;29;20043;-80
2021/01/13 08:23:21;;;;;;;29.90;17.40;;;;;;;2.92;61.23;94243.50;4958282;29;20039;-80
2021/01/13 08:25:55;;;;;;;30.20;17.55;;;;;;;3.06;60.40;94246.88;4958363;29;20059;-80
2021/01/13 08:28:21;;;;;;;24.23;16.05;;;;;;;3.16;60.56;94254.97;4939481;29;20031;-78
2021/01/13 08:30:51;;;;;;;37.67;18.90;;;;;;;3.25;59.98;94253.75;4946300;29;20027;-83
2021/01/13 08:33:21;;;;;;;37.90;19.17;;;;;;;3.26;60.31;94257.94;4927264;29;20051;-84
2021/01/13 08:35:58;;;;;;;35.42;20.80;;;;;;;3.44;59.39;94258.09;4945009;29;20138;-84
2021/01/13 08:38:25;;;;;;;35.08;21.98;;;;;;;3.55;58.91;94262.59;4952803;29;20151;-84
2021/01/13 08:40:51;;;;;;;30.58;16.48;;;;;;;3.52;57.80;94260.44;4942876;29;20035;-85
2021/01/13 08:43:17;;;;;;;27.73;16.08;;;;;;;3.29;58.76;94265.25;4942521;29;20035;-85
2021/01/13 08:45:46;;;;;;;26.15;17.23;;;;;;;3.03;59.36;94273.75;4949907;29;20042;-84
2021/01/13 08:48:13;;;;;;;28.70;17.55;;;;;;;2.69;60.56;94265.25;4940739;29;20031;-84
2021/01/13 08:50:39;;;;;;;42.20;18.70;;;;;;;2.58;60.39;94277.88;4924263;29;20041;-85
2021/01/13 08:53:05;;;;;;;37.50;19.55;;;;;;;2.40;60.80;94276.66;4939581;29;20089;-84
2021/01/13 08:55:31;;;;;;;30.35;17.67;;;;;;;2.28;61.81;94285.91;4940228;29;20118;-83
2021/01/13 08:58:04;;;;;;;34.72;17.92;;;;;;;2.19;62.90;94287.06;4940048;29;20465;-85
2021/01/13 09:01:00;;;;;;;26.70;16.55;;;;;;;2.20;62.19;94283.50;4938939;29;20142;-84
2021/01/13 09:03:26;;;;;;;32.03;16.63;;;;;;;2.23;62.38;94284.91;4944426;29;20190;-85
2021/01/13 09:05:52;;;;;;;28.98;15.95;;;;;;;2.27;62.52;94288.66;4940330;29;20495;-85
2021/01/13 09:08:30;;;;;;;25.13;15.68;;;;;;;2.32;62.51;94276.84;4955518;28;20039;-85
2021/01/13 09:12:00;;;;;;;35.67;17.90;;;;;;;2.51;62.12;94277.06;4938556;29;20027;-85
2021/01/13 09:18:29;;;;;;;32.53;18.90;;;;;;;2.65;61.42;94261.50;4929324;29;20043;-85
2021/01/13 09:21:01;;;;;;;34.60;19.73;;;;;;;2.85;60.98;94271.78;4956623;29;20035;-85
2021/01/13 09:26:05;;;;;;;37.10;22.45;;;;;;;3.06;59.10;94252.00;4995338;23;20503;-84
2021/01/13 09:28:30;;;;;;;28.45;16.80;;;;;;;3.21;58.96;94265.44;4953327;28;20074;-84
2021/01/13 09:30:56;;;;;;;26.75;17.48;;;;;;;3.44;58.36;94275.28;4930565;28;20039;-85
2021/01/13 09:33:21;;;;;;;33.67;18.25;;;;;;;3.71;57.62;94281.16;4931788;28;20411;-84
2021/01/13 09:35:48;;;;;;;27.38;19.15;;;;;;;3.76;57.06;94266.72;4966751;28;20409;-84
2021/01/13 09:38:38;;;;;;;29.73;19.15;;;;;;;3.75;56.62;94264.34;4967425;28;20038;-84
2021/01/13 09:41:24;;;;;;;45.72;25.75;;;;;;;4.00;57.02;94272.94;4893879;29;20049;-85
2021/01/13 09:43:50;;;;;;;28.40;17.70;;;;;;;3.97;56.50;94264.84;4893363;29;20033;-84
2021/01/13 09:46:21;;;;;;;26.27;16.08;;;;;;;3.94;56.70;94278.91;4893229;29;20073;-83
2021/01/13 09:49:12;;;;;;;26.00;17.27;;;;;;;3.91;57.04;94264.69;5069437;23;20057;-81
2021/01/13 09:51:38;;;;;;;26.80;17.13;;;;;;;3.90;56.59;94244.28;4960746;28;20121;-82
2021/01/13 09:54:05;;;;;;;27.73;16.25;;;;;;;3.90;57.05;94263.09;4911900;29;20113;-82
2021/01/13 09:56:32;;;;;;;26.10;17.30;;;;;;;3.84;57.01;94257.97;4907430;29;20047;-83
2021/01/13 09:59:02;;;;;;;28.17;16.55;;;;;;;3.89;57.19;94265.84;4925880;29;20046;-83
2021/01/13 10:01:31;;;;;;;29.20;17.60;;;;;;;3.79;57.87;94242.38;4925612;29;20057;-83
2021/01/13 10:03:58;;;;;;;26.00;15.90;;;;;;;3.93;57.13;94246.47;4922318;29;20466;-82
2021/01/13 10:06:44;;;;;;;29.70;17.25;;;;;;;3.76;58.40;94224.78;4955828;29;20035;-81
2021/01/13 10:09:16;;;;;;;30.08;17.88;;;;;;;3.83;57.87;94235.81;4938318;29;20055;-83
2021/01/13 10:11:45;;;;;;;34.22;19.90;;;;;;;3.83;58.58;94235.81;4907209;29;20477;-83
2021/01/13 10:14:13;;;;;;;35.05;18.85;;;;;;;3.83;58.34;94225.53;4955058;29;20175;-84
2021/01/13 10:16:42;;;;;;;32.53;17.73;;;;;;;3.87;58.58;94231.84;4955410;29;20035;-84
2021/01/13 10:19:08;;;;;;;27.40;17.10;;;;;;;3.86;58.17;94232.84;4938996;29;20046;-83
2021/01/13 10:21:35;;;;;;;31.10;18.58;;;;;;;3.70;58.89;94225.56;4923258;29;20039;-83
2021/01/13 10:24:11;;;;;;;29.50;18.02;;;;;;;3.71;58.75;94216.88;4939420;29;20062;-84
2021/01/13 10:26:38;;;;;;;29.65;17.70;;;;;;;3.74;58.40;94217.28;4954727;28;20035;-84
2021/01/13 10:29:05;;;;;;;32.38;19.63;;;;;;;3.70;58.64;94215.28;4956572;29;20046;-83
2021/01/13 10:31:30;;;;;;;36.30;22.08;;;;;;;3.70;58.98;94215.28;4923318;29;20043;-83
2021/01/13 10:33:56;;;;;;;56.63;27.15;;;;;;;3.64;58.83;94203.25;4926299;29;20062;-83
2021/01/13 10:39:10;;;;;;;53.50;30.65;;;;;;;3.77;58.96;94206.56;5002780;23;20081;-82
2021/01/13 10:41:37;;;;;;;65.07;37.97;;;;;;;3.79;59.09;94188.38;4977678;28;20065;-83
2021/01/13 10:44:08;;;;;;;48.47;28.42;;;;;;;3.83;58.89;94205.75;4941683;29;20518;-83
2021/01/13 10:46:46;;;;;;;76.75;42.97;;;;;;;3.85;58.69;94200.41;4923169;28;20039;-82
2021/01/13 10:49:32;;;;;;;62.75;34.50;;;;;;;3.93;58.63;94210.47;4925679;29;20050;-83
2021/01/13 10:52:00;;;;;;;49.22;27.38;;;;;;;4.00;58.48;94197.56;4958408;28;20047;-83
2021/01/13 10:54:35;;;;;;;39.42;22.25;;;;;;;4.08;57.68;94210.19;4940630;29;20067;-81
2021/01/13 10:57:06;;;;;;;39.80;22.73;;;;;;;4.19;57.97;94200.00;4942597;29;20113;-83
2021/01/13 10:59:32;;;;;;;41.03;22.27;;;;;;;4.28;57.65;94208.28;4941368;29;20054;-81
2021/01/13 11:02:07;;;;;;;31.63;19.58;;;;;;;4.30;62.41;94202.94;4906539;29;20035;-78
2021/01/13 11:04:44;;;;;;;40.95;21.80;;;;;;;4.39;60.43;94199.91;4940986;29;20042;-79
2021/01/13 11:07:11;;;;;;;36.65;21.90;;;;;;;4.51;60.69;94197.44;4941686;29;20066;-79
2021/01/13 11:09:38;;;;;;;36.22;19.58;;;;;;;4.54;60.75;94197.00;4941491;29;20074;-80
2021/01/13 11:12:04;;;;;;;34.88;21.52;;;;;;;4.59;61.42;94212.63;4942581;29;20035;-80
2021/01/13 11:14:40;;;;;;;35.35;20.35;;;;;;;4.66;60.95;94203.06;4956035;29;20031;-80
2021/01/13 11:17:26;;;;;;;37.83;23.00;;;;;;;4.67;61.36;94209.00;4961242;29;20043;-80
2021/01/13 11:19:51;;;;;;;35.17;21.65;;;;;;;4.77;59.84;94201.59;4958567;29;20070;-80
2021/01/13 11:22:17;;;;;;;38.70;23.25;;;;;;;4.87;60.15;94201.13;4960223;29;20055;-80
2021/01/13 11:24:50;;;;;;;38.22;23.17;;;;;;;4.85;60.28;94193.59;4958543;29;20506;-80
2021/01/13 11:27:26;;;;;;;40.42;24.70;;;;;;;4.86;59.86;94196.97;4942581;29;20054;-80
2021/01/13 11:29:53;;;;;;;38.85;21.90;;;;;;;4.89;60.23;94199.16;4927852;29;20123;-80
2021/01/13 11:32:25;;;;;;;31.90;20.15;;;;;;;4.88;59.58;94207.84;4944319;29;20703;-79
2021/01/13 11:34:54;;;;;;;35.05;21.30;;;;;;;4.80;58.56;94207.13;4941994;29;20036;-79
2021/01/13 11:37:41;;;;;;;36.65;20.95;;;;;;;4.78;58.72;94208.34;4927360;29;20050;-79
2021/01/13 11:40:34;;;;;;;43.95;23.67;;;;;;;4.82;58.63;94204.34;4957567;29;20047;-78
2021/01/13 11:43:06;;;;;;;38.85;21.73;;;;;;;4.65;58.98;94214.38;4937578;29;20048;-80
2021/01/13 11:45:57;;;;;;;39.13;25.90;;;;;;;4.50;59.24;94206.94;4954162;29;20082;-79
2021/01/13 11:48:27;;;;;;;41.63;24.80;;;;;;;4.49;58.24;94212.31;4938062;29;20035;-80
2021/01/13 11:50:58;;;;;;;48.35;27.42;;;;;;;4.50;59.36;94211.31;4937309;29;20055;-82
2021/01/13 11:53:24;;;;;;;41.88;23.17;;;;;;;4.52;59.22;94225.53;5008278;23;20046;-83
2021/01/13 11:55:49;;;;;;;39.33;22.25;;;;;;;4.55;59.73;94208.88;4957774;28;20034;-82
2021/01/13 11:58:16;;;;;;;34.33;22.05;;;;;;;4.72;58.88;94209.19;4951637;28;20070;-81
2021/01/13 12:00:42;;;;;;;41.67;24.63;;;;;;;4.73;58.76;94206.41;4936217;29;20071;-79
2021/01/13 12:03:09;;;;;;;44.67;23.77;;;;;;;4.80;59.65;94217.41;4936186;29;20043;-80
2021/01/13 12:05:38;;;;;;;42.05;23.27;;;;;;;4.79;58.68;94218.41;4953402;29;20033;-79
2021/01/13 12:08:17;;;;;;;42.58;24.98;;;;;;;4.76;58.25;94216.28;4955967;29;20496;-80